Van, Turkey

4:37 AM +03 on December 03, 2016 (GMT +0300)
Van | | Change Station

Elev 5453 ft 38.47 °N, 43.35 °E | Updated 47 minutes ago

Scattered Clouds
Scattered Clouds
32 °F
Feels Like 22 °F
N
13
Wind Variable Wind from SSE

Today
High -- | Low -- °F
--% Chance of Precip.
Yesterday
High -- | Low -- °F
Precip. -- in
Pressure 29.92 in
Visibility 6.2 miles
Clouds Scattered Clouds 4000 ft
Windchill 22 °F
Dew Point 21 °F
Humidity 64%
Rainfall 0.00 in
Snow Depth Not available.
7:07 AM 4:45 PM
Waxing Crescent, 11% visible
METAR LTCI 030050Z 16011KT 9999 SCT040 00/M06 Q1013 NOSIG
Pressure 29.92 in
Visibility 6.2 miles
Clouds Scattered Clouds 4000 ft
Windchill 22 °F
Dew Point 21 °F
Humidity 64%
Rainfall 0.00 in
Snow Depth Not available.
7:07 AM 4:45 PM
Waxing Crescent, 11% visible
METAR LTCI 030050Z 16011KT 9999 SCT040 00/M06 Q1013 NOSIG

10-Day Weather Forecast

×

Almanac

Astronomy

Dec. 03, 2016 Rise Set
Actual Time
Civil Twilight
Nautical Twilight
Astronomical Twilight
Moon
Length of Visible Light
Length of Day
Tomorrow will be .
, % of the Moon is Illuminated

Today's Extremes

Country Highs Country Lows

Community

WunderPhotos

Upload Photos

1,955,390 photos uploaded!

WunderBlog® & News

Nearby

Air Quality

  Air Quality AQ Index Pollutant
Not available.

Snow Depth

Station Depth Elevation

Earthquake Activity

City Distance Mag. Time & Date
Minimum magnitude displayed is 2.5.

Coastal Water Temperatures

Place Temperature

Stations

Nearby Weather Stations

Station Location Temp. Windchill Dew Point Humidity Wind Precip. Elev Updated Type